sensor_id;sensor_type;location;lat;lon;timestamp;temperature;humidity
69189;DHT22;56302;52.322;5.926;2022-07-29T00:01:06;14.80;70.00
69189;DHT22;56302;52.322;5.926;2022-07-29T00:03:31;14.90;69.40
69189;DHT22;56302;52.322;5.926;2022-07-29T00:05:57;14.80;69.80
69189;DHT22;56302;52.322;5.926;2022-07-29T00:08:22;14.90;70.30
69189;DHT22;56302;52.322;5.926;2022-07-29T00:10:48;14.80;70.30
69189;DHT22;56302;52.322;5.926;2022-07-29T00:13:14;14.80;70.00
69189;DHT22;56302;52.322;5.926;2022-07-29T00:15:39;14.80;70.20
69189;DHT22;56302;52.322;5.926;2022-07-29T00:18:05;14.70;70.60
69189;DHT22;56302;52.322;5.926;2022-07-29T00:20:30;14.80;70.40
69189;DHT22;56302;52.322;5.926;2022-07-29T00:22:56;14.80;70.30
69189;DHT22;56302;52.322;5.926;2022-07-29T00:25:22;14.80;70.60
69189;DHT22;56302;52.322;5.926;2022-07-29T00:27:47;14.80;70.30
69189;DHT22;56302;52.322;5.926;2022-07-29T00:30:13;14.70;70.30
69189;DHT22;56302;52.322;5.926;2022-07-29T00:32:38;14.70;70.90
69189;DHT22;56302;52.322;5.926;2022-07-29T00:35:05;14.70;70.50
69189;DHT22;56302;52.322;5.926;2022-07-29T00:37:49;14.70;71.00
69189;DHT22;56302;52.322;5.926;2022-07-29T00:40:15;14.70;70.70
69189;DHT22;56302;52.322;5.926;2022-07-29T00:42:45;14.70;70.60
69189;DHT22;56302;52.322;5.926;2022-07-29T00:48:18;14.60;71.10
69189;DHT22;56302;52.322;5.926;2022-07-29T00:50:44;14.60;71.70
69189;DHT22;56302;52.322;5.926;2022-07-29T00:53:11;14.60;71.00
69189;DHT22;56302;52.322;5.926;2022-07-29T00:55:37;14.60;70.90
69189;DHT22;56302;52.322;5.926;2022-07-29T00:58:03;14.60;71.10
69189;DHT22;56302;52.322;5.926;2022-07-29T01:00:29;14.60;71.20
69189;DHT22;56302;52.322;5.926;2022-07-29T01:02:54;14.50;71.30
69189;DHT22;56302;52.322;5.926;2022-07-29T01:05:22;14.50;71.30
69189;DHT22;56302;52.322;5.926;2022-07-29T01:07:51;14.50;71.40
69189;DHT22;56302;52.322;5.926;2022-07-29T01:10:18;14.50;71.10
69189;DHT22;56302;52.322;5.926;2022-07-29T01:12:47;14.50;70.70
69189;DHT22;56302;52.322;5.926;2022-07-29T01:15:13;14.50;70.90
69189;DHT22;56302;52.322;5.926;2022-07-29T01:34:19;14.40;71.50
69189;DHT22;56302;52.322;5.926;2022-07-29T01:40:02;14.40;71.40
69189;DHT22;56302;52.322;5.926;2022-07-29T01:42:38;14.40;71.80
69189;DHT22;56302;52.322;5.926;2022-07-29T01:45:18;14.40;71.50
69189;DHT22;56302;52.322;5.926;2022-07-29T01:50:16;14.40;71.50
69189;DHT22;56302;52.322;5.926;2022-07-29T01:53:04;14.40;71.40
69189;DHT22;56302;52.322;5.926;2022-07-29T01:55:34;14.40;71.60
69189;DHT22;56302;52.322;5.926;2022-07-29T01:58:00;14.40;71.20
69189;DHT22;56302;52.322;5.926;2022-07-29T02:00:30;14.30;71.30
69189;DHT22;56302;52.322;5.926;2022-07-29T02:02:58;14.30;71.70
69189;DHT22;56302;52.322;5.926;2022-07-29T02:05:25;14.30;71.80
69189;DHT22;56302;52.322;5.926;2022-07-29T02:07:53;14.30;71.50
69189;DHT22;56302;52.322;5.926;2022-07-29T02:10:22;14.30;72.00
69189;DHT22;56302;52.322;5.926;2022-07-29T02:12:50;14.20;71.20
69189;DHT22;56302;52.322;5.926;2022-07-29T02:15:16;14.20;71.60
69189;DHT22;56302;52.322;5.926;2022-07-29T02:17:46;14.20;71.60
69189;DHT22;56302;52.322;5.926;2022-07-29T02:20:14;14.20;71.40
69189;DHT22;56302;52.322;5.926;2022-07-29T02:22:41;14.20;71.50
69189;DHT22;56302;52.322;5.926;2022-07-29T02:25:10;14.20;71.10
69189;DHT22;56302;52.322;5.926;2022-07-29T02:27:37;14.20;71.60
69189;DHT22;56302;52.322;5.926;2022-07-29T02:30:05;14.10;71.10
69189;DHT22;56302;52.322;5.926;2022-07-29T02:32:32;14.10;71.90
69189;DHT22;56302;52.322;5.926;2022-07-29T02:35:00;14.20;71.80
69189;DHT22;56302;52.322;5.926;2022-07-29T02:37:27;14.10;72.00
69189;DHT22;56302;52.322;5.926;2022-07-29T02:39:55;14.20;71.80
69189;DHT22;56302;52.322;5.926;2022-07-29T02:42:22;14.10;71.30
69189;DHT22;56302;52.322;5.926;2022-07-29T02:44:49;14.20;71.00
69189;DHT22;56302;52.322;5.926;2022-07-29T02:47:16;14.10;71.00
69189;DHT22;56302;52.322;5.926;2022-07-29T02:50:08;14.10;71.40
69189;DHT22;56302;52.322;5.926;2022-07-29T02:52:52;14.10;72.20
69189;DHT22;56302;52.322;5.926;2022-07-29T02:55:26;14.10;71.60
69189;DHT22;56302;52.322;5.926;2022-07-29T02:58:01;14.10;72.10
69189;DHT22;56302;52.322;5.926;2022-07-29T03:00:30;14.10;72.40
69189;DHT22;56302;52.322;5.926;2022-07-29T03:02:58;14.00;72.50
69189;DHT22;56302;52.322;5.926;2022-07-29T03:05:25;14.00;72.70
69189;DHT22;56302;52.322;5.926;2022-07-29T03:07:55;14.10;72.50
69189;DHT22;56302;52.322;5.926;2022-07-29T03:10:21;14.00;72.60
69189;DHT22;56302;52.322;5.926;2022-07-29T03:12:48;14.00;72.40
69189;DHT22;56302;52.322;5.926;2022-07-29T03:15:14;13.90;72.40
69189;DHT22;56302;52.322;5.926;2022-07-29T03:17:40;13.90;72.50
69189;DHT22;56302;52.322;5.926;2022-07-29T03:20:07;14.00;72.50
69189;DHT22;56302;52.322;5.926;2022-07-29T03:22:39;14.00;72.60
69189;DHT22;56302;52.322;5.926;2022-07-29T03:25:09;14.10;72.10
69189;DHT22;56302;52.322;5.926;2022-07-29T03:27:35;14.00;73.00
69189;DHT22;56302;52.322;5.926;2022-07-29T03:30:01;14.00;73.40
69189;DHT22;56302;52.322;5.926;2022-07-29T03:32:26;13.90;73.00
69189;DHT22;56302;52.322;5.926;2022-07-29T03:34:52;13.90;73.50
69189;DHT22;56302;52.322;5.926;2022-07-29T03:37:17;13.90;73.80
69189;DHT22;56302;52.322;5.926;2022-07-29T03:39:44;13.80;74.20
69189;DHT22;56302;52.322;5.926;2022-07-29T03:42:13;13.80;75.40
69189;DHT22;56302;52.322;5.926;2022-07-29T03:44:42;13.70;75.30
69189;DHT22;56302;52.322;5.926;2022-07-29T03:47:08;13.60;75.40
69189;DHT22;56302;52.322;5.926;2022-07-29T03:49:36;13.60;75.60
69189;DHT22;56302;52.322;5.926;2022-07-29T03:52:03;13.70;75.20
69189;DHT22;56302;52.322;5.926;2022-07-29T03:54:29;13.70;74.90
69189;DHT22;56302;52.322;5.926;2022-07-29T03:56:57;13.60;74.30
69189;DHT22;56302;52.322;5.926;2022-07-29T03:59:24;13.70;74.40
69189;DHT22;56302;52.322;5.926;2022-07-29T04:01:50;13.70;74.80
69189;DHT22;56302;52.322;5.926;2022-07-29T04:04:16;13.70;74.80
69189;DHT22;56302;52.322;5.926;2022-07-29T04:06:43;13.70;74.40
69189;DHT22;56302;52.322;5.926;2022-07-29T04:09:09;13.70;74.80
69189;DHT22;56302;52.322;5.926;2022-07-29T04:11:36;13.70;75.10
69189;DHT22;56302;52.322;5.926;2022-07-29T04:14:03;13.70;76.00
69189;DHT22;56302;52.322;5.926;2022-07-29T04:16:29;13.70;75.20
69189;DHT22;56302;52.322;5.926;2022-07-29T04:18:54;13.80;75.30
69189;DHT22;56302;52.322;5.926;2022-07-29T04:21:20;13.80;75.80
69189;DHT22;56302;52.322;5.926;2022-07-29T04:23:45;13.80;75.20
69189;DHT22;56302;52.322;5.926;2022-07-29T04:26:17;13.70;75.00
69189;DHT22;56302;52.322;5.926;2022-07-29T04:28:43;13.70;75.40
69189;DHT22;56302;52.322;5.926;2022-07-29T04:31:10;13.70;75.30
69189;DHT22;56302;52.322;5.926;2022-07-29T04:33:35;13.70;75.00
69189;DHT22;56302;52.322;5.926;2022-07-29T04:36:01;13.70;75.40
69189;DHT22;56302;52.322;5.926;2022-07-29T04:38:27;13.70;74.50
69189;DHT22;56302;52.322;5.926;2022-07-29T04:40:52;13.70;75.10
69189;DHT22;56302;52.322;5.926;2022-07-29T04:43:18;13.80;75.10
69189;DHT22;56302;52.322;5.926;2022-07-29T04:45:43;13.80;75.20
69189;DHT22;56302;52.322;5.926;2022-07-29T04:48:09;13.80;75.40
69189;DHT22;56302;52.322;5.926;2022-07-29T04:50:37;13.80;74.70
69189;DHT22;56302;52.322;5.926;2022-07-29T04:53:02;13.80;76.50
69189;DHT22;56302;52.322;5.926;2022-07-29T04:55:28;13.70;77.80
69189;DHT22;56302;52.322;5.926;2022-07-29T04:57:53;13.70;77.50
69189;DHT22;56302;52.322;5.926;2022-07-29T05:00:19;13.80;76.80
69189;DHT22;56302;52.322;5.926;2022-07-29T05:02:44;13.90;76.60
69189;DHT22;56302;52.322;5.926;2022-07-29T05:05:10;13.80;76.80
69189;DHT22;56302;52.322;5.926;2022-07-29T05:07:35;13.70;77.80
69189;DHT22;56302;52.322;5.926;2022-07-29T05:10:01;13.70;77.60
69189;DHT22;56302;52.322;5.926;2022-07-29T05:12:26;13.70;77.70
69189;DHT22;56302;52.322;5.926;2022-07-29T05:14:53;13.70;78.90
69189;DHT22;56302;52.322;5.926;2022-07-29T05:17:19;13.60;79.20
69189;DHT22;56302;52.322;5.926;2022-07-29T05:19:44;13.70;78.80
69189;DHT22;56302;52.322;5.926;2022-07-29T05:22:10;13.70;79.10
69189;DHT22;56302;52.322;5.926;2022-07-29T05:24:35;13.60;79.90
69189;DHT22;56302;52.322;5.926;2022-07-29T05:27:02;13.70;80.30
69189;DHT22;56302;52.322;5.926;2022-07-29T05:29:27;13.70;80.50
69189;DHT22;56302;52.322;5.926;2022-07-29T05:31:52;13.60;80.20
69189;DHT22;56302;52.322;5.926;2022-07-29T05:34:19;13.70;80.60
69189;DHT22;56302;52.322;5.926;2022-07-29T05:36:45;13.70;80.70
69189;DHT22;56302;52.322;5.926;2022-07-29T05:39:11;13.60;81.10
69189;DHT22;56302;52.322;5.926;2022-07-29T05:41:38;13.60;80.60
69189;DHT22;56302;52.322;5.926;2022-07-29T05:44:03;13.70;81.20
69189;DHT22;56302;52.322;5.926;2022-07-29T05:46:29;13.70;80.30
69189;DHT22;56302;52.322;5.926;2022-07-29T05:48:55;13.80;80.50
69189;DHT22;56302;52.322;5.926;2022-07-29T05:51:20;13.90;79.90
69189;DHT22;56302;52.322;5.926;2022-07-29T05:53:46;14.00;80.60
69189;DHT22;56302;52.322;5.926;2022-07-29T05:56:12;13.90;82.70
69189;DHT22;56302;52.322;5.926;2022-07-29T05:58:37;13.80;80.90
69189;DHT22;56302;52.322;5.926;2022-07-29T06:01:03;13.80;81.00
69189;DHT22;56302;52.322;5.926;2022-07-29T06:03:29;14.00;80.30
69189;DHT22;56302;52.322;5.926;2022-07-29T06:05:55;14.00;80.50
69189;DHT22;56302;52.322;5.926;2022-07-29T06:08:21;13.90;80.70
69189;DHT22;56302;52.322;5.926;2022-07-29T06:10:46;14.00;80.50
69189;DHT22;56302;52.322;5.926;2022-07-29T06:13:12;14.10;80.00
69189;DHT22;56302;52.322;5.926;2022-07-29T06:15:38;14.10;80.90
69189;DHT22;56302;52.322;5.926;2022-07-29T06:18:03;14.10;80.80
69189;DHT22;56302;52.322;5.926;2022-07-29T06:20:32;14.20;80.60
69189;DHT22;56302;52.322;5.926;2022-07-29T06:22:58;14.30;80.10
69189;DHT22;56302;52.322;5.926;2022-07-29T06:25:24;14.40;80.00
69189;DHT22;56302;52.322;5.926;2022-07-29T06:27:50;14.40;79.80
69189;DHT22;56302;52.322;5.926;2022-07-29T06:30:16;14.40;79.70
69189;DHT22;56302;52.322;5.926;2022-07-29T06:32:41;14.50;79.90
69189;DHT22;56302;52.322;5.926;2022-07-29T06:35:07;14.50;80.10
69189;DHT22;56302;52.322;5.926;2022-07-29T06:37:33;14.40;80.10
69189;DHT22;56302;52.322;5.926;2022-07-29T06:39:58;14.60;80.10
69189;DHT22;56302;52.322;5.926;2022-07-29T06:42:43;14.80;79.60
69189;DHT22;56302;52.322;5.926;2022-07-29T06:45:10;14.90;79.10
69189;DHT22;56302;52.322;5.926;2022-07-29T06:47:37;15.00;78.80
69189;DHT22;56302;52.322;5.926;2022-07-29T06:50:03;15.00;78.70
69189;DHT22;56302;52.322;5.926;2022-07-29T06:52:29;15.10;78.60
69189;DHT22;56302;52.322;5.926;2022-07-29T06:54:54;15.00;78.50
69189;DHT22;56302;52.322;5.926;2022-07-29T06:57:20;15.10;78.40
69189;DHT22;56302;52.322;5.926;2022-07-29T06:59:46;15.20;78.50
69189;DHT22;56302;52.322;5.926;2022-07-29T07:02:11;15.40;78.30
69189;DHT22;56302;52.322;5.926;2022-07-29T07:04:37;15.50;77.80
69189;DHT22;56302;52.322;5.926;2022-07-29T07:07:03;15.40;77.80
69189;DHT22;56302;52.322;5.926;2022-07-29T07:09:28;15.40;77.00
69189;DHT22;56302;52.322;5.926;2022-07-29T07:11:54;15.50;76.90
69189;DHT22;56302;52.322;5.926;2022-07-29T07:14:19;15.50;76.70
69189;DHT22;56302;52.322;5.926;2022-07-29T07:16:45;15.50;76.40
69189;DHT22;56302;52.322;5.926;2022-07-29T07:19:10;15.40;77.10
69189;DHT22;56302;52.322;5.926;2022-07-29T07:21:36;15.50;76.90
69189;DHT22;56302;52.322;5.926;2022-07-29T07:24:01;15.50;76.80
69189;DHT22;56302;52.322;5.926;2022-07-29T07:26:27;15.50;76.70
69189;DHT22;56302;52.322;5.926;2022-07-29T07:28:53;15.60;76.10
69189;DHT22;56302;52.322;5.926;2022-07-29T07:31:18;15.60;76.20
69189;DHT22;56302;52.322;5.926;2022-07-29T07:33:44;15.70;76.30
69189;DHT22;56302;52.322;5.926;2022-07-29T07:36:09;15.70;76.10
69189;DHT22;56302;52.322;5.926;2022-07-29T07:38:35;15.80;76.10
69189;DHT22;56302;52.322;5.926;2022-07-29T07:41:01;15.80;76.10
69189;DHT22;56302;52.322;5.926;2022-07-29T07:43:26;15.80;75.50
69189;DHT22;56302;52.322;5.926;2022-07-29T07:45:52;15.70;76.20
69189;DHT22;56302;52.322;5.926;2022-07-29T07:48:18;15.80;75.70
69189;DHT22;56302;52.322;5.926;2022-07-29T07:50:43;15.90;76.40
69189;DHT22;56302;52.322;5.926;2022-07-29T07:53:09;16.00;75.80
69189;DHT22;56302;52.322;5.926;2022-07-29T07:55:40;16.30;75.10
69189;DHT22;56302;52.322;5.926;2022-07-29T07:58:05;16.50;74.30
69189;DHT22;56302;52.322;5.926;2022-07-29T08:00:31;16.60;73.50
69189;DHT22;56302;52.322;5.926;2022-07-29T08:02:58;16.80;74.00
69189;DHT22;56302;52.322;5.926;2022-07-29T08:05:23;16.90;73.40
69189;DHT22;56302;52.322;5.926;2022-07-29T08:07:49;16.90;72.50
69189;DHT22;56302;52.322;5.926;2022-07-29T08:10:18;17.00;73.20
69189;DHT22;56302;52.322;5.926;2022-07-29T08:13:09;17.10;72.50
69189;DHT22;56302;52.322;5.926;2022-07-29T08:15:36;17.10;73.40
69189;DHT22;56302;52.322;5.926;2022-07-29T08:18:02;17.40;72.20
69189;DHT22;56302;52.322;5.926;2022-07-29T08:20:27;17.30;71.50
69189;DHT22;56302;52.322;5.926;2022-07-29T08:22:53;17.30;72.10
69189;DHT22;56302;52.322;5.926;2022-07-29T08:25:19;17.50;72.00
69189;DHT22;56302;52.322;5.926;2022-07-29T08:27:46;17.70;71.90
69189;DHT22;56302;52.322;5.926;2022-07-29T08:30:11;17.80;70.90
69189;DHT22;56302;52.322;5.926;2022-07-29T08:32:37;18.00;71.60
69189;DHT22;56302;52.322;5.926;2022-07-29T08:35:03;18.20;70.20
69189;DHT22;56302;52.322;5.926;2022-07-29T08:37:29;18.30;70.10
69189;DHT22;56302;52.322;5.926;2022-07-29T08:39:54;18.40;69.70
69189;DHT22;56302;52.322;5.926;2022-07-29T08:42:20;18.40;69.30
69189;DHT22;56302;52.322;5.926;2022-07-29T08:44:45;18.40;67.90
69189;DHT22;56302;52.322;5.926;2022-07-29T08:47:13;18.40;68.30
69189;DHT22;56302;52.322;5.926;2022-07-29T08:49:39;18.50;68.30
69189;DHT22;56302;52.322;5.926;2022-07-29T08:52:04;18.60;68.50
69189;DHT22;56302;52.322;5.926;2022-07-29T08:54:30;19.00;67.90
69189;DHT22;56302;52.322;5.926;2022-07-29T08:56:57;19.10;66.10
69189;DHT22;56302;52.322;5.926;2022-07-29T08:59:25;19.20;65.90
69189;DHT22;56302;52.322;5.926;2022-07-29T09:01:53;19.30;65.70
69189;DHT22;56302;52.322;5.926;2022-07-29T09:04:19;19.30;64.70
69189;DHT22;56302;52.322;5.926;2022-07-29T09:06:47;19.50;64.50
69189;DHT22;56302;52.322;5.926;2022-07-29T09:09:14;19.70;63.30
69189;DHT22;56302;52.322;5.926;2022-07-29T09:11:41;19.70;63.90
69189;DHT22;56302;52.322;5.926;2022-07-29T09:14:08;19.80;64.00
69189;DHT22;56302;52.322;5.926;2022-07-29T09:19:20;20.50;61.90
69189;DHT22;56302;52.322;5.926;2022-07-29T09:21:46;20.50;62.50
69189;DHT22;56302;52.322;5.926;2022-07-29T09:24:44;20.40;62.80
69189;DHT22;56302;52.322;5.926;2022-07-29T09:27:25;20.50;63.00
69189;DHT22;56302;52.322;5.926;2022-07-29T09:30:13;20.60;62.50
69189;DHT22;56302;52.322;5.926;2022-07-29T09:32:56;20.30;63.40
69189;DHT22;56302;52.322;5.926;2022-07-29T09:35:25;20.40;62.80
69189;DHT22;56302;52.322;5.926;2022-07-29T09:37:51;20.60;62.80
69189;DHT22;56302;52.322;5.926;2022-07-29T09:40:23;20.40;62.80
69189;DHT22;56302;52.322;5.926;2022-07-29T09:42:49;20.50;63.00
69189;DHT22;56302;52.322;5.926;2022-07-29T09:45:42;20.90;62.30
69189;DHT22;56302;52.322;5.926;2022-07-29T09:48:19;20.90;61.10
69189;DHT22;56302;52.322;5.926;2022-07-29T09:50:46;20.90;60.60
69189;DHT22;56302;52.322;5.926;2022-07-29T09:53:32;21.00;60.90
69189;DHT22;56302;52.322;5.926;2022-07-29T09:55:58;20.70;62.30
69189;DHT22;56302;52.322;5.926;2022-07-29T09:58:23;20.90;62.80
69189;DHT22;56302;52.322;5.926;2022-07-29T10:00:51;21.00;62.50
69189;DHT22;56302;52.322;5.926;2022-07-29T10:03:17;21.10;61.60
69189;DHT22;56302;52.322;5.926;2022-07-29T10:05:44;21.00;61.80
69189;DHT22;56302;52.322;5.926;2022-07-29T10:08:11;20.90;61.80
69189;DHT22;56302;52.322;5.926;2022-07-29T10:10:42;20.90;61.90
69189;DHT22;56302;52.322;5.926;2022-07-29T10:13:13;20.90;61.80
69189;DHT22;56302;52.322;5.926;2022-07-29T10:15:41;20.70;62.10
69189;DHT22;56302;52.322;5.926;2022-07-29T10:18:10;20.70;62.80
69189;DHT22;56302;52.322;5.926;2022-07-29T10:20:37;20.80;61.90
69189;DHT22;56302;52.322;5.926;2022-07-29T10:23:03;20.70;62.30
69189;DHT22;56302;52.322;5.926;2022-07-29T10:25:29;20.60;63.00
69189;DHT22;56302;52.322;5.926;2022-07-29T10:27:55;20.60;62.60
69189;DHT22;56302;52.322;5.926;2022-07-29T10:30:21;20.80;62.60
69189;DHT22;56302;52.322;5.926;2022-07-29T10:35:58;20.90;62.20
69189;DHT22;56302;52.322;5.926;2022-07-29T10:38:42;20.80;62.30
69189;DHT22;56302;52.322;5.926;2022-07-29T10:41:36;20.60;62.50
69189;DHT22;56302;52.322;5.926;2022-07-29T10:44:07;20.60;62.50
69189;DHT22;56302;52.322;5.926;2022-07-29T10:46:37;20.60;62.20
69189;DHT22;56302;52.322;5.926;2022-07-29T10:49:11;20.70;62.20
69189;DHT22;56302;52.322;5.926;2022-07-29T10:51:56;20.90;62.50
69189;DHT22;56302;52.322;5.926;2022-07-29T10:59:43;21.30;60.60
69189;DHT22;56302;52.322;5.926;2022-07-29T11:07:22;21.40;59.60
69189;DHT22;56302;52.322;5.926;2022-07-29T11:17:29;21.30;59.40
69189;DHT22;56302;52.322;5.926;2022-07-29T11:22:58;21.70;58.30
69189;DHT22;56302;52.322;5.926;2022-07-29T11:25:24;21.80;58.30
69189;DHT22;56302;52.322;5.926;2022-07-29T11:27:52;21.90;57.60
69189;DHT22;56302;52.322;5.926;2022-07-29T11:30:18;21.80;57.40
69189;DHT22;56302;52.322;5.926;2022-07-29T11:32:44;21.70;57.10
69189;DHT22;56302;52.322;5.926;2022-07-29T11:37:40;21.40;58.80
69189;DHT22;56302;52.322;5.926;2022-07-29T11:45:02;21.50;58.90
69189;DHT22;56302;52.322;5.926;2022-07-29T11:47:31;21.80;58.50
69189;DHT22;56302;52.322;5.926;2022-07-29T11:49:58;21.90;57.60
69189;DHT22;56302;52.322;5.926;2022-07-29T11:55:04;21.90;57.20
69189;DHT22;56302;52.322;5.926;2022-07-29T11:57:31;22.40;56.80
69189;DHT22;56302;52.322;5.926;2022-07-29T11:59:59;22.60;55.50
69189;DHT22;56302;52.322;5.926;2022-07-29T12:02:41;22.50;55.50
69189;DHT22;56302;52.322;5.926;2022-07-29T12:05:07;22.60;56.60
69189;DHT22;56302;52.322;5.926;2022-07-29T12:07:33;22.90;56.00
69189;DHT22;56302;52.322;5.926;2022-07-29T12:10:00;23.00;54.30
69189;DHT22;56302;52.322;5.926;2022-07-29T12:12:26;23.20;55.30
69189;DHT22;56302;52.322;5.926;2022-07-29T12:14:52;23.00;55.00
69189;DHT22;56302;52.322;5.926;2022-07-29T12:17:35;23.10;53.90
69189;DHT22;56302;52.322;5.926;2022-07-29T12:20:04;23.10;53.30
69189;DHT22;56302;52.322;5.926;2022-07-29T12:22:34;23.00;52.70
69189;DHT22;56302;52.322;5.926;2022-07-29T12:25:07;22.80;52.30
69189;DHT22;56302;52.322;5.926;2022-07-29T12:27:34;22.50;53.80
69189;DHT22;56302;52.322;5.926;2022-07-29T12:30:05;22.60;54.40
69189;DHT22;56302;52.322;5.926;2022-07-29T12:32:35;22.60;54.60
69189;DHT22;56302;52.322;5.926;2022-07-29T12:35:09;22.70;54.70
69189;DHT22;56302;52.322;5.926;2022-07-29T12:37:36;22.70;54.40
69189;DHT22;56302;52.322;5.926;2022-07-29T12:40:06;22.70;54.70
69189;DHT22;56302;52.322;5.926;2022-07-29T12:42:32;22.40;53.90
69189;DHT22;56302;52.322;5.926;2022-07-29T12:44:59;22.60;53.20
69189;DHT22;56302;52.322;5.926;2022-07-29T12:47:25;22.70;53.20
69189;DHT22;56302;52.322;5.926;2022-07-29T12:49:52;22.80;52.20
69189;DHT22;56302;52.322;5.926;2022-07-29T12:52:34;22.90;52.70
69189;DHT22;56302;52.322;5.926;2022-07-29T12:55:00;22.80;52.50
69189;DHT22;56302;52.322;5.926;2022-07-29T12:57:26;22.60;52.80
69189;DHT22;56302;52.322;5.926;2022-07-29T13:02:24;22.40;54.00
69189;DHT22;56302;52.322;5.926;2022-07-29T13:04:59;22.50;52.80
69189;DHT22;56302;52.322;5.926;2022-07-29T13:07:31;22.70;51.70
69189;DHT22;56302;52.322;5.926;2022-07-29T13:10:17;22.80;51.70
69189;DHT22;56302;52.322;5.926;2022-07-29T13:13:03;22.90;51.00
69189;DHT22;56302;52.322;5.926;2022-07-29T13:15:29;22.80;50.60
69189;DHT22;56302;52.322;5.926;2022-07-29T13:17:55;22.70;49.40
69189;DHT22;56302;52.322;5.926;2022-07-29T13:20:24;22.70;48.10
69189;DHT22;56302;52.322;5.926;2022-07-29T13:22:50;22.70;48.50
69189;DHT22;56302;52.322;5.926;2022-07-29T13:25:27;22.70;48.90
69189;DHT22;56302;52.322;5.926;2022-07-29T13:27:53;23.00;47.40
69189;DHT22;56302;52.322;5.926;2022-07-29T13:30:20;23.10;46.40
69189;DHT22;56302;52.322;5.926;2022-07-29T13:32:46;23.10;45.80
69189;DHT22;56302;52.322;5.926;2022-07-29T13:35:12;23.00;46.10
69189;DHT22;56302;52.322;5.926;2022-07-29T13:37:39;22.90;46.30
69189;DHT22;56302;52.322;5.926;2022-07-29T13:40:08;22.80;46.80
69189;DHT22;56302;52.322;5.926;2022-07-29T13:42:34;22.90;46.60
69189;DHT22;56302;52.322;5.926;2022-07-29T13:45:00;23.00;46.00
69189;DHT22;56302;52.322;5.926;2022-07-29T13:47:26;23.20;45.50
69189;DHT22;56302;52.322;5.926;2022-07-29T13:49:52;23.40;45.90
69189;DHT22;56302;52.322;5.926;2022-07-29T13:52:19;23.60;46.90
69189;DHT22;56302;52.322;5.926;2022-07-29T13:54:45;23.50;45.40
69189;DHT22;56302;52.322;5.926;2022-07-29T13:57:12;23.50;45.70
69189;DHT22;56302;52.322;5.926;2022-07-29T13:59:39;23.50;47.00
69189;DHT22;56302;52.322;5.926;2022-07-29T14:02:04;23.50;47.10
69189;DHT22;56302;52.322;5.926;2022-07-29T14:04:31;23.50;46.00
69189;DHT22;56302;52.322;5.926;2022-07-29T14:06:56;23.40;46.00
69189;DHT22;56302;52.322;5.926;2022-07-29T14:09:22;23.50;45.90
69189;DHT22;56302;52.322;5.926;2022-07-29T14:11:47;23.40;46.70
69189;DHT22;56302;52.322;5.926;2022-07-29T14:14:14;23.50;46.70
69189;DHT22;56302;52.322;5.926;2022-07-29T14:16:40;23.60;45.40
69189;DHT22;56302;52.322;5.926;2022-07-29T14:19:06;23.50;46.40
69189;DHT22;56302;52.322;5.926;2022-07-29T14:21:32;23.40;45.40
69189;DHT22;56302;52.322;5.926;2022-07-29T14:23:57;23.40;45.30
69189;DHT22;56302;52.322;5.926;2022-07-29T14:26:23;23.50;45.70
69189;DHT22;56302;52.322;5.926;2022-07-29T14:28:49;23.60;45.20
69189;DHT22;56302;52.322;5.926;2022-07-29T14:31:15;23.60;45.90
69189;DHT22;56302;52.322;5.926;2022-07-29T14:33:41;23.70;46.40
69189;DHT22;56302;52.322;5.926;2022-07-29T14:36:06;23.60;46.40
69189;DHT22;56302;52.322;5.926;2022-07-29T14:38:32;23.50;47.10
69189;DHT22;56302;52.322;5.926;2022-07-29T14:40:57;23.30;47.20
69189;DHT22;56302;52.322;5.926;2022-07-29T14:43:23;23.20;47.70
69189;DHT22;56302;52.322;5.926;2022-07-29T14:45:49;23.10;47.70
69189;DHT22;56302;52.322;5.926;2022-07-29T14:48:14;23.20;47.60
69189;DHT22;56302;52.322;5.926;2022-07-29T14:50:40;23.20;47.40
69189;DHT22;56302;52.322;5.926;2022-07-29T14:53:05;23.30;47.80
69189;DHT22;56302;52.322;5.926;2022-07-29T14:55:31;23.40;47.60
69189;DHT22;56302;52.322;5.926;2022-07-29T14:57:57;23.30;47.90
69189;DHT22;56302;52.322;5.926;2022-07-29T15:00:24;23.30;48.80
69189;DHT22;56302;52.322;5.926;2022-07-29T15:02:49;23.30;48.10
69189;DHT22;56302;52.322;5.926;2022-07-29T15:05:15;23.30;49.00
69189;DHT22;56302;52.322;5.926;2022-07-29T15:07:40;23.40;47.40
69189;DHT22;56302;52.322;5.926;2022-07-29T15:10:06;23.30;47.50
69189;DHT22;56302;52.322;5.926;2022-07-29T15:12:32;23.30;48.00
69189;DHT22;56302;52.322;5.926;2022-07-29T15:14:58;23.30;49.50
69189;DHT22;56302;52.322;5.926;2022-07-29T15:17:24;23.40;48.00
69189;DHT22;56302;52.322;5.926;2022-07-29T15:19:49;23.40;48.70
69189;DHT22;56302;52.322;5.926;2022-07-29T15:22:15;23.20;49.20
69189;DHT22;56302;52.322;5.926;2022-07-29T15:24:40;23.10;49.20
69189;DHT22;56302;52.322;5.926;2022-07-29T15:27:06;23.00;49.50
69189;DHT22;56302;52.322;5.926;2022-07-29T15:29:32;22.90;50.30
69189;DHT22;56302;52.322;5.926;2022-07-29T15:31:58;22.80;50.60
69189;DHT22;56302;52.322;5.926;2022-07-29T15:34:23;22.70;51.10
69189;DHT22;56302;52.322;5.926;2022-07-29T15:36:52;22.70;51.60
69189;DHT22;56302;52.322;5.926;2022-07-29T15:39:19;22.70;51.60
69189;DHT22;56302;52.322;5.926;2022-07-29T15:41:44;22.70;51.70
69189;DHT22;56302;52.322;5.926;2022-07-29T15:44:10;22.70;51.20
69189;DHT22;56302;52.322;5.926;2022-07-29T15:46:36;22.80;50.10
69189;DHT22;56302;52.322;5.926;2022-07-29T15:49:20;22.70;50.60
69189;DHT22;56302;52.322;5.926;2022-07-29T15:51:46;22.70;50.30
69189;DHT22;56302;52.322;5.926;2022-07-29T15:54:11;22.70;51.00
69189;DHT22;56302;52.322;5.926;2022-07-29T15:56:37;22.70;50.90
69189;DHT22;56302;52.322;5.926;2022-07-29T15:59:03;22.60;51.60
69189;DHT22;56302;52.322;5.926;2022-07-29T16:01:29;22.60;52.30
69189;DHT22;56302;52.322;5.926;2022-07-29T16:03:54;22.50;52.60
69189;DHT22;56302;52.322;5.926;2022-07-29T16:06:20;22.40;52.70
69189;DHT22;56302;52.322;5.926;2022-07-29T16:08:46;22.40;53.10
69189;DHT22;56302;52.322;5.926;2022-07-29T16:11:11;22.40;53.10
69189;DHT22;56302;52.322;5.926;2022-07-29T16:13:37;22.40;53.20
69189;DHT22;56302;52.322;5.926;2022-07-29T16:16:02;22.30;53.70
69189;DHT22;56302;52.322;5.926;2022-07-29T16:18:28;22.40;53.90
69189;DHT22;56302;52.322;5.926;2022-07-29T16:20:54;22.40;54.00
69189;DHT22;56302;52.322;5.926;2022-07-29T16:23:19;22.40;53.90
69189;DHT22;56302;52.322;5.926;2022-07-29T16:25:45;22.50;54.20
69189;DHT22;56302;52.322;5.926;2022-07-29T16:28:11;22.50;54.00
69189;DHT22;56302;52.322;5.926;2022-07-29T16:30:36;22.50;53.80
69189;DHT22;56302;52.322;5.926;2022-07-29T16:33:02;22.60;53.40
69189;DHT22;56302;52.322;5.926;2022-07-29T16:35:28;22.60;52.50
69189;DHT22;56302;52.322;5.926;2022-07-29T16:37:57;22.60;52.60